createdAt,value
2019-02-21T00:02:07.829Z,9.83
2019-02-21T00:04:39.071Z,10.37
2019-02-21T00:07:09.982Z,9.93
2019-02-21T00:09:40.884Z,10.83
2019-02-21T00:12:11.912Z,9.83
2019-02-21T00:14:42.902Z,10.47
2019-02-21T00:17:13.888Z,9.67
2019-02-21T00:19:44.793Z,10.47
2019-02-21T00:22:17.755Z,10.93
2019-02-21T00:24:48.661Z,10.20
2019-02-21T00:27:19.577Z,9.53
2019-02-21T00:29:50.538Z,10.60
2019-02-21T00:32:21.444Z,10.03
2019-02-21T00:34:52.348Z,10.97
2019-02-21T00:37:23.259Z,10.87
2019-02-21T00:39:54.202Z,10.67
2019-02-21T00:42:25.121Z,11.93
2019-02-21T00:44:56.063Z,12.17
2019-02-21T00:47:27.488Z,10.67
2019-02-21T00:49:58.549Z,12.93
2019-02-21T00:52:31.408Z,11.83
2019-02-21T00:55:02.023Z,10.53
2019-02-21T00:57:32.909Z,12.60
2019-02-21T01:00:03.908Z,13.70
2019-02-21T01:02:35.999Z,14.13
2019-02-21T01:05:07.511Z,11.80
2019-02-21T01:07:38.455Z,11.20
2019-02-21T01:10:09.436Z,11.27
2019-02-21T01:12:40.331Z,9.00
2019-02-21T01:15:11.412Z,9.53
2019-02-21T01:17:42.385Z,8.40
2019-02-21T01:20:13.388Z,9.63
2019-02-21T01:22:44.394Z,9.97
2019-02-21T01:25:15.295Z,10.70
2019-02-21T01:27:46.284Z,9.23
2019-02-21T01:30:17.329Z,9.33
2019-02-21T01:32:48.243Z,9.07
2019-02-21T01:35:19.084Z,9.70
2019-02-21T01:37:50.067Z,9.40
2019-02-21T01:40:21.021Z,10.23
2019-02-21T01:42:51.978Z,9.37
2019-02-21T01:45:22.876Z,8.80
2019-02-21T01:47:55.797Z,8.97
2019-02-21T01:50:27.953Z,9.37
2019-02-21T01:52:58.883Z,9.23
2019-02-21T01:55:31.282Z,8.90
2019-02-21T01:58:02.253Z,9.93
2019-02-21T02:00:34.611Z,9.97
2019-02-21T02:03:05.594Z,9.13
2019-02-21T02:05:36.484Z,8.13
2019-02-21T02:08:07.424Z,10.17
2019-02-21T02:10:38.520Z,9.83
2019-02-21T02:13:21.517Z,9.30
2019-02-21T02:15:43.021Z,10.63
2019-02-21T02:18:13.905Z,9.47
2019-02-21T02:20:44.770Z,9.63
2019-02-21T02:23:15.653Z,9.60
2019-02-21T02:25:46.556Z,9.63
2019-02-21T02:28:17.583Z,9.67
2019-02-21T02:30:48.761Z,10.73
2019-02-21T02:33:19.663Z,10.43
2019-02-21T02:35:51.628Z,9.77
2019-02-21T02:38:23.684Z,9.33
2019-02-21T02:40:54.738Z,8.97
2019-02-21T02:43:25.716Z,10.60
2019-02-21T02:45:56.745Z,10.90
2019-02-21T02:48:28.086Z,10.73
2019-02-21T02:51:00.142Z,11.83
2019-02-21T02:53:31.114Z,11.33
2019-02-21T02:56:02.019Z,10.63
2019-02-21T02:58:32.932Z,10.90
2019-02-21T03:01:03.803Z,11.43
2019-02-21T03:03:34.752Z,12.80
2019-02-21T03:06:05.639Z,12.83
2019-02-21T03:08:36.605Z,12.33
2019-02-21T03:11:07.533Z,11.83
2019-02-21T03:13:38.432Z,14.00
2019-02-21T03:16:09.362Z,16.37
2019-02-21T03:18:40.306Z,14.90
2019-02-21T03:21:11.426Z,16.27
2019-02-21T03:23:42.320Z,14.97
2019-02-21T03:26:13.217Z,17.13
2019-02-21T03:28:44.086Z,15.23
2019-02-21T03:31:15.307Z,15.33
2019-02-21T03:33:46.187Z,15.57
2019-02-21T03:36:18.166Z,16.33
2019-02-21T03:38:50.837Z,15.10
2019-02-21T03:41:22.947Z,16.90
2019-02-21T03:43:53.809Z,15.63
2019-02-21T03:46:24.692Z,13.23
2019-02-21T03:48:56.002Z,13.67
2019-02-21T03:51:26.966Z,13.13
2019-02-21T03:53:57.876Z,13.47
2019-02-21T03:56:28.739Z,13.37
2019-02-21T03:58:59.876Z,12.27
2019-02-21T04:01:30.753Z,13.17
2019-02-21T04:04:01.678Z,13.13
2019-02-21T04:06:32.561Z,13.90
2019-02-21T04:09:03.994Z,13.77
2019-02-21T04:11:35.652Z,13.47
2019-02-21T04:14:07.793Z,13.77
2019-02-21T04:16:38.721Z,13.80
2019-02-21T04:19:09.678Z,14.00
2019-02-21T04:21:40.551Z,13.83
2019-02-21T04:24:11.446Z,13.73
2019-02-21T04:26:42.335Z,13.10
2019-02-21T04:29:13.349Z,13.67
2019-02-21T04:31:44.593Z,12.37
2019-02-21T04:34:15.536Z,12.50
2019-02-21T04:36:46.448Z,12.67
2019-02-21T04:39:17.384Z,12.20
2019-02-21T04:41:48.310Z,12.00
2019-02-21T04:44:19.421Z,12.50
2019-02-21T04:46:50.380Z,12.17
2019-02-21T04:49:21.757Z,13.10
2019-02-21T04:51:52.834Z,12.10
2019-02-21T04:54:23.807Z,11.67
2019-02-21T04:56:54.659Z,12.67
2019-02-21T04:59:26.719Z,11.37
2019-02-21T05:01:57.627Z,13.57
2019-02-21T05:04:28.570Z,12.40
2019-02-21T05:07:00.489Z,11.47
2019-02-21T05:09:31.540Z,13.77
2019-02-21T05:12:04.123Z,13.73
2019-02-21T05:14:35.051Z,14.27
2019-02-21T05:17:06.195Z,14.83
2019-02-21T05:19:38.893Z,14.50
2019-02-21T05:22:09.826Z,13.37
2019-02-21T05:24:40.724Z,13.57
2019-02-21T05:27:19.055Z,14.43
2019-02-21T05:29:50.080Z,14.90
2019-02-21T05:32:41.417Z,14.90
2019-02-21T05:35:32.371Z,13.90
2019-02-21T05:38:23.125Z,14.17
2019-02-21T05:41:11.772Z,14.00
2019-02-21T05:43:56.943Z,13.27
2019-02-21T05:46:55.906Z,13.43
2019-02-21T05:49:58.235Z,15.10
2019-02-21T05:52:57.574Z,15.40
2019-02-21T05:55:34.774Z,13.20
2019-02-21T05:58:27.129Z,13.87
2019-02-21T06:01:07.915Z,14.27
2019-02-21T06:03:46.334Z,15.23
2019-02-21T06:06:40.903Z,14.53
2019-02-21T06:09:26.379Z,13.50
2019-02-21T06:12:15.033Z,14.27
2019-02-21T06:14:51.907Z,15.03
2019-02-21T06:17:29.873Z,14.73
2019-02-21T06:20:28.890Z,14.60
2019-02-21T06:23:18.823Z,14.87
2019-02-21T06:25:58.814Z,15.00
2019-02-21T06:28:31.278Z,13.27
2019-02-21T06:31:14.600Z,14.13
2019-02-21T06:33:49.676Z,13.33
2019-02-21T06:36:20.694Z,13.63
2019-02-21T06:38:51.757Z,14.50
2019-02-21T06:41:22.687Z,14.90
2019-02-21T06:43:56.535Z,15.67
2019-02-21T06:46:27.322Z,16.00
2019-02-21T06:48:58.254Z,14.43
2019-02-21T06:51:29.918Z,14.03
2019-02-21T06:54:02.141Z,13.87
2019-02-21T06:56:33.137Z,14.80
2019-02-21T06:59:04.146Z,14.77
2019-02-21T07:01:35.068Z,16.27
2019-02-21T07:04:06.039Z,15.50
2019-02-21T07:06:39.143Z,15.40
2019-02-21T07:09:09.632Z,15.53
2019-02-21T07:11:40.621Z,16.03
2019-02-21T07:14:12.801Z,15.73
2019-02-21T07:16:43.729Z,14.93
2019-02-21T07:19:17.722Z,15.97
2019-02-21T07:21:48.666Z,16.47
2019-02-21T07:24:19.574Z,16.70
2019-02-21T07:26:50.529Z,17.00
2019-02-21T07:29:22.625Z,15.73
2019-02-21T07:31:54.536Z,17.87
2019-02-21T07:34:25.786Z,17.10
2019-02-21T07:36:56.775Z,17.93
2019-02-21T07:39:35.698Z,18.37
2019-02-21T07:42:00.249Z,17.23
2019-02-21T07:44:31.282Z,18.10
2019-02-21T07:47:02.196Z,18.00
2019-02-21T07:49:33.164Z,19.40
2019-02-21T07:52:05.515Z,19.27
2019-02-21T07:54:36.492Z,18.47
2019-02-21T07:57:08.604Z,19.30
2019-02-21T07:59:39.645Z,19.00
2019-02-21T08:02:10.578Z,18.43
2019-02-21T08:04:43.262Z,19.27
2019-02-21T08:07:14.124Z,18.80
2019-02-21T08:09:44.941Z,19.30
2019-02-21T08:12:15.997Z,20.13
2019-02-21T08:14:46.869Z,20.63
2019-02-21T08:17:17.914Z,20.97
2019-02-21T08:19:49.859Z,20.00
2019-02-21T08:22:20.794Z,19.03
2019-02-21T08:24:51.743Z,19.97
2019-02-21T08:27:22.629Z,19.70
2019-02-21T08:29:53.655Z,19.17
2019-02-21T08:32:30.460Z,20.50
2019-02-21T08:35:01.969Z,20.70
2019-02-21T08:37:33.050Z,21.80
2019-02-21T08:40:04.126Z,20.37
2019-02-21T08:42:36.152Z,20.90
2019-02-21T08:45:07.123Z,21.57
2019-02-21T08:47:38.091Z,20.77
2019-02-21T08:50:08.976Z,20.80
2019-02-21T08:52:40.240Z,21.67
2019-02-21T08:55:11.844Z,22.73
2019-02-21T08:57:42.926Z,22.47
2019-02-21T09:00:14.490Z,20.30
2019-02-21T09:02:45.689Z,22.20
2019-02-21T09:05:17.398Z,22.60
2019-02-21T09:07:51.320Z,22.03
2019-02-21T09:10:22.198Z,21.03
2019-02-21T09:12:53.215Z,22.77
2019-02-21T09:15:24.366Z,22.87
2019-02-21T09:17:55.217Z,22.43
2019-02-21T09:20:27.964Z,23.00
2019-02-21T09:22:58.842Z,23.13
2019-02-21T09:25:29.734Z,22.90
2019-02-21T09:28:00.546Z,24.40
2019-02-21T09:30:31.477Z,22.40
2019-02-21T09:33:02.363Z,22.23
2019-02-21T09:35:33.270Z,23.67
2019-02-21T09:38:04.316Z,22.00
2019-02-21T09:40:36.287Z,22.67
2019-02-21T09:43:07.233Z,23.37
2019-02-21T09:45:39.222Z,24.80
2019-02-21T09:48:11.962Z,24.20
2019-02-21T09:50:42.709Z,22.23
2019-02-21T09:53:14.513Z,23.40
2019-02-21T09:55:45.485Z,23.43
2019-02-21T09:58:16.506Z,23.23
2019-02-21T10:00:47.389Z,22.93
2019-02-21T10:03:18.303Z,21.73
2019-02-21T10:05:49.870Z,23.87
2019-02-21T10:08:21.945Z,21.97
2019-02-21T10:10:53.860Z,22.07
2019-02-21T10:13:24.814Z,22.93
2019-02-21T10:15:55.725Z,22.33
2019-02-21T10:18:26.605Z,23.60
2019-02-21T10:20:57.532Z,22.40
2019-02-21T10:23:28.548Z,23.10
2019-02-21T10:25:59.435Z,23.37
2019-02-21T10:28:32.511Z,22.43
2019-02-21T10:31:04.727Z,22.47
2019-02-21T10:33:46.297Z,22.57
2019-02-21T10:36:09.623Z,22.63
2019-02-21T10:38:40.577Z,22.00
2019-02-21T10:41:11.455Z,21.23
2019-02-21T10:43:42.395Z,22.10
2019-02-21T10:46:13.297Z,21.47
2019-02-21T10:48:44.279Z,21.77
2019-02-21T10:51:15.185Z,23.70
2019-02-21T10:53:46.658Z,22.30
2019-02-21T10:56:17.704Z,21.37
2019-02-21T10:58:48.635Z,21.13
2019-02-21T11:01:20.630Z,20.53
2019-02-21T11:03:53.096Z,20.63
2019-02-21T11:06:24.113Z,19.27
2019-02-21T11:08:55.087Z,20.23
2019-02-21T11:11:26.125Z,19.17
2019-02-21T11:13:57.016Z,19.33
2019-02-21T11:16:27.919Z,18.33
2019-02-21T11:18:58.833Z,18.30
2019-02-21T11:21:29.709Z,18.33
2019-02-21T11:24:00.732Z,18.47
2019-02-21T11:26:31.657Z,17.83
2019-02-21T11:29:02.610Z,18.03
2019-02-21T11:31:33.588Z,16.63
2019-02-21T11:34:04.570Z,18.10
2019-02-21T11:36:35.873Z,17.70
2019-02-21T11:39:08.079Z,16.27
2019-02-21T11:41:39.104Z,17.40
2019-02-21T11:44:10.135Z,15.87
2019-02-21T11:46:41.144Z,15.77
2019-02-21T11:49:12.047Z,14.27
2019-02-21T11:51:43.081Z,14.33
2019-02-21T11:54:15.995Z,13.57
2019-02-21T11:56:46.954Z,13.77
2019-02-21T11:59:17.888Z,14.90
2019-02-21T12:01:48.797Z,14.77
2019-02-21T12:04:19.693Z,13.80
2019-02-21T12:06:50.622Z,15.00
2019-02-21T12:09:21.704Z,14.43
2019-02-21T12:11:52.635Z,13.33
2019-02-21T12:14:24.619Z,13.50
2019-02-21T12:16:57.262Z,14.20
2019-02-21T12:19:28.160Z,13.07
2019-02-21T12:21:59.523Z,13.60
2019-02-21T12:24:32.076Z,13.43
2019-02-21T12:27:02.929Z,13.43
2019-02-21T12:29:33.865Z,13.40
2019-02-21T12:32:04.899Z,15.37
2019-02-21T12:34:35.809Z,13.37
2019-02-21T12:37:08.776Z,13.33
2019-02-21T12:39:39.758Z,13.93
2019-02-21T12:42:10.776Z,13.07
2019-02-21T12:44:41.791Z,12.17
2019-02-21T12:47:12.787Z,13.23
2019-02-21T12:49:43.869Z,12.23
2019-02-21T12:52:14.882Z,11.20
2019-02-21T12:54:47.197Z,10.90
2019-02-21T12:57:18.208Z,12.00
2019-02-21T12:59:49.257Z,11.90
2019-02-21T13:02:20.250Z,11.33
2019-02-21T13:04:51.294Z,13.00
2019-02-21T13:07:23.290Z,12.67
2019-02-21T13:09:54.262Z,12.80
2019-02-21T13:12:25.217Z,11.53
2019-02-21T13:14:56.273Z,12.87
2019-02-21T13:17:27.178Z,13.37
2019-02-21T13:19:58.197Z,12.07
2019-02-21T13:22:29.148Z,12.40
2019-02-21T13:25:00.336Z,11.87
2019-02-21T13:27:31.338Z,12.60
2019-02-21T13:30:02.281Z,12.30
2019-02-21T13:32:33.291Z,10.60
2019-02-21T13:35:04.411Z,11.30
2019-02-21T13:37:35.794Z,9.50
2019-02-21T13:40:07.679Z,10.30
2019-02-21T13:42:38.716Z,10.70
2019-02-21T13:45:10.238Z,9.97
2019-02-21T13:47:41.297Z,10.53
2019-02-21T13:50:14.596Z,10.00
2019-02-21T13:52:45.592Z,8.80
2019-02-21T13:55:17.098Z,7.67
2019-02-21T13:57:48.171Z,8.37
2019-02-21T14:00:19.295Z,8.23
2019-02-21T14:02:50.274Z,7.33
2019-02-21T14:05:21.309Z,7.90
2019-02-21T14:07:52.258Z,8.23
2019-02-21T14:10:23.275Z,9.37
2019-02-21T14:12:54.395Z,10.33
2019-02-21T14:15:25.882Z,9.27
2019-02-21T14:17:57.024Z,9.93
2019-02-21T14:20:27.950Z,9.90
2019-02-21T14:22:59.075Z,9.20
2019-02-21T14:25:40.385Z,9.00
2019-02-21T14:28:02.780Z,9.03
2019-02-21T14:30:33.795Z,8.87
2019-02-21T14:33:04.683Z,8.07
2019-02-21T14:35:35.589Z,8.17
2019-02-21T14:38:08.299Z,8.77
2019-02-21T14:40:39.300Z,7.40
2019-02-21T14:43:12.712Z,6.60
2019-02-21T14:45:43.053Z,6.57
2019-02-21T14:48:13.981Z,6.37
2019-02-21T14:50:44.981Z,7.23
2019-02-21T14:53:15.949Z,7.20
2019-02-21T14:55:47.576Z,7.50
2019-02-21T14:58:18.806Z,7.47
2019-02-21T15:00:49.698Z,8.87
2019-02-21T15:03:22.199Z,9.10
2019-02-21T15:05:54.360Z,7.47
2019-02-21T15:08:25.358Z,8.80
2019-02-21T15:10:56.465Z,8.53
2019-02-21T15:13:27.555Z,9.63
2019-02-21T15:15:58.739Z,9.50
2019-02-21T15:18:29.677Z,9.67
2019-02-21T15:21:00.748Z,10.43
2019-02-21T15:23:31.929Z,11.03
2019-02-21T15:26:02.893Z,10.87
2019-02-21T15:28:35.008Z,10.90
2019-02-21T15:31:06.409Z,11.73
2019-02-21T15:33:37.631Z,10.23
2019-02-21T15:36:09.651Z,10.93
2019-02-21T15:38:41.577Z,10.40
2019-02-21T15:41:12.748Z,12.23
2019-02-21T15:43:44.041Z,10.80
2019-02-21T15:46:15.045Z,11.80
2019-02-21T15:48:45.957Z,11.63
2019-02-21T15:51:17.115Z,11.70
2019-02-21T15:53:48.110Z,11.97
2019-02-21T15:56:19.221Z,14.03
2019-02-21T15:58:50.367Z,12.00
2019-02-21T16:01:22.620Z,12.57
2019-02-21T16:03:53.573Z,13.33
2019-02-21T16:06:24.789Z,12.93
2019-02-21T16:08:55.812Z,14.27
2019-02-21T16:11:26.868Z,12.67
2019-02-21T16:14:02.922Z,12.53
2019-02-21T16:16:30.540Z,13.70
2019-02-21T16:19:01.524Z,13.23
2019-02-21T16:21:32.392Z,13.13
2019-02-21T16:24:03.464Z,13.60
2019-02-21T16:26:34.472Z,13.90
2019-02-21T16:29:05.588Z,13.63
2019-02-21T16:31:36.634Z,15.07
2019-02-21T16:34:09.327Z,13.40
2019-02-21T16:36:40.428Z,14.13
2019-02-21T16:39:11.918Z,14.50
2019-02-21T16:41:44.337Z,15.20
2019-02-21T16:44:15.375Z,14.83
2019-02-21T16:46:46.595Z,14.13
2019-02-21T16:49:17.624Z,15.80
2019-02-21T16:51:48.786Z,14.50
2019-02-21T16:54:19.772Z,15.27
2019-02-21T16:56:50.874Z,16.50
2019-02-21T16:59:21.969Z,15.17
2019-02-21T17:01:54.425Z,16.37
2019-02-21T17:04:25.400Z,16.83
2019-02-21T17:06:56.383Z,15.73
2019-02-21T17:09:27.304Z,15.73
2019-02-21T17:11:58.286Z,16.10
2019-02-21T17:14:29.502Z,15.63
2019-02-21T17:17:00.452Z,14.47
2019-02-21T17:19:31.608Z,16.40
2019-02-21T17:22:02.604Z,16.63
2019-02-21T17:24:33.645Z,15.50
2019-02-21T17:27:04.616Z,16.07
2019-02-21T17:29:35.755Z,17.77
2019-02-21T17:32:07.028Z,16.17
2019-02-21T17:34:38.113Z,16.53
2019-02-21T17:37:09.160Z,16.80
2019-02-21T17:39:42.351Z,15.47
2019-02-21T17:42:13.841Z,16.23
2019-02-21T17:44:44.925Z,16.33
2019-02-21T17:47:17.288Z,17.07
2019-02-21T17:49:48.443Z,17.83
2019-02-21T17:52:19.794Z,17.77
2019-02-21T17:54:51.066Z,18.20
2019-02-21T17:57:22.291Z,17.60
2019-02-21T17:59:53.379Z,17.23
2019-02-21T18:02:24.342Z,16.50
2019-02-21T18:04:55.514Z,18.73
2019-02-21T18:07:36.172Z,17.63
2019-02-21T18:09:59.194Z,20.03
2019-02-21T18:12:30.258Z,19.07
2019-02-21T18:15:01.297Z,20.83
2019-02-21T18:17:32.398Z,20.30
2019-02-21T18:20:03.663Z,21.00
2019-02-21T18:22:35.782Z,19.40
2019-02-21T18:25:09.960Z,18.47
2019-02-21T18:27:42.385Z,19.50
2019-02-21T18:30:14.797Z,18.83
2019-02-21T18:32:46.831Z,18.87
2019-02-21T18:35:19.906Z,17.77
2019-02-21T18:37:52.764Z,17.20
2019-02-21T18:40:24.739Z,15.47
2019-02-21T18:42:55.847Z,15.97
2019-02-21T18:45:29.092Z,16.60
2019-02-21T18:48:00.118Z,17.13
2019-02-21T18:50:38.256Z,18.73
2019-02-21T18:53:04.443Z,18.00
2019-02-21T18:55:37.622Z,18.57
2019-02-21T18:58:08.588Z,19.37
2019-02-21T19:00:39.773Z,19.57
2019-02-21T19:03:10.981Z,19.90
2019-02-21T19:05:42.027Z,19.17
2019-02-21T19:08:13.511Z,19.53
2019-02-21T19:10:44.577Z,19.27
2019-02-21T19:13:17.599Z,20.13
2019-02-21T19:15:50.194Z,21.27
2019-02-21T19:18:21.514Z,19.13
2019-02-21T19:20:52.760Z,20.57
2019-02-21T19:23:24.142Z,20.23
2019-02-21T19:25:56.823Z,22.23
2019-02-21T19:28:28.008Z,20.17
2019-02-21T19:31:02.713Z,20.60
2019-02-21T19:33:33.816Z,19.40
2019-02-21T19:36:05.091Z,24.60
2019-02-21T19:38:36.424Z,20.60
2019-02-21T19:41:08.751Z,20.23
2019-02-21T19:43:39.974Z,21.00
2019-02-21T19:46:11.121Z,20.10
2019-02-21T19:48:42.206Z,20.13
2019-02-21T19:51:13.263Z,19.10
2019-02-21T19:53:46.068Z,19.20
2019-02-21T19:56:17.503Z,20.47
2019-02-21T19:58:49.320Z,20.47
2019-02-21T20:01:21.008Z,21.63
2019-02-21T20:03:53.835Z,20.30
2019-02-21T20:06:26.135Z,21.10
2019-02-21T20:08:57.537Z,20.70
2019-02-21T20:11:29.735Z,19.87
2019-02-21T20:14:00.879Z,21.30
2019-02-21T20:16:31.876Z,19.80
2019-02-21T20:19:03.071Z,21.57
2019-02-21T20:21:34.175Z,20.90
2019-02-21T20:24:05.342Z,21.37
2019-02-21T20:26:36.485Z,21.63
2019-02-21T20:29:07.821Z,21.53
2019-02-21T20:31:39.057Z,19.83
2019-02-21T20:34:12.794Z,20.57
2019-02-21T20:36:50.633Z,21.13
2019-02-21T20:39:15.665Z,21.27
2019-02-21T20:41:47.512Z,22.00
2019-02-21T20:44:18.692Z,21.80
2019-02-21T20:46:49.753Z,21.87
2019-02-21T20:49:21.075Z,23.27
2019-02-21T20:51:52.402Z,23.27
2019-02-21T20:54:25.451Z,22.50
2019-02-21T20:56:56.384Z,22.27
2019-02-21T20:59:29.370Z,22.17
2019-02-21T21:02:02.356Z,23.10
2019-02-21T21:04:33.597Z,24.43
2019-02-21T21:07:04.782Z,23.23
2019-02-21T21:09:35.916Z,23.60
2019-02-21T21:12:06.996Z,24.37
2019-02-21T21:14:39.406Z,24.03
2019-02-21T21:17:11.329Z,22.90
2019-02-21T21:19:43.592Z,22.70
2019-02-21T21:22:16.613Z,24.87
2019-02-21T21:24:47.726Z,23.23
2019-02-21T21:27:18.806Z,25.50
2019-02-21T21:29:49.980Z,23.33
2019-02-21T21:32:21.045Z,26.63
2019-02-21T21:34:52.192Z,25.73
2019-02-21T21:37:23.301Z,25.90
2019-02-21T21:39:54.549Z,25.90
2019-02-21T21:42:25.678Z,24.90
2019-02-21T21:44:56.741Z,24.87
2019-02-21T21:47:27.670Z,25.13
2019-02-21T21:50:01.470Z,25.03
2019-02-21T21:52:32.635Z,25.17
2019-02-21T21:55:03.595Z,23.97
2019-02-21T21:57:34.679Z,24.07
2019-02-21T22:00:08.248Z,23.90
2019-02-21T22:02:40.922Z,24.70
2019-02-21T22:05:13.654Z,25.27
2019-02-21T22:07:46.080Z,24.87
2019-02-21T22:10:17.237Z,24.90
2019-02-21T22:12:48.242Z,24.20
2019-02-21T22:15:19.259Z,23.03
2019-02-21T22:17:50.329Z,26.80
2019-02-21T22:20:21.320Z,24.67
2019-02-21T22:22:52.462Z,24.60
2019-02-21T22:25:23.569Z,25.40
2019-02-21T22:27:56.271Z,26.67
2019-02-21T22:30:27.423Z,25.17
2019-02-21T22:32:58.341Z,27.53
2019-02-21T22:35:29.208Z,26.00
2019-02-21T22:38:01.222Z,28.53
2019-02-21T22:40:34.084Z,27.00
2019-02-21T22:43:05.171Z,27.17
2019-02-21T22:45:36.073Z,26.73
2019-02-21T22:48:07.035Z,27.73
2019-02-21T22:50:38.066Z,28.20
2019-02-21T22:53:08.976Z,29.30
2019-02-21T22:55:39.937Z,27.30
2019-02-21T22:58:10.943Z,28.23
2019-02-21T23:01:35.795Z,27.07
2019-02-21T23:04:41.364Z,26.53
2019-02-21T23:07:52.462Z,27.13
2019-02-21T23:10:23.462Z,26.33
2019-02-21T23:12:54.469Z,26.23
2019-02-21T23:15:26.450Z,28.00
2019-02-21T23:17:57.355Z,26.87
2019-02-21T23:20:28.498Z,26.50
2019-02-21T23:22:59.451Z,28.20
2019-02-21T23:25:30.382Z,26.73
2019-02-21T23:28:01.401Z,26.87
2019-02-21T23:30:33.428Z,27.17
2019-02-21T23:33:04.307Z,30.13
2019-02-21T23:35:35.251Z,28.43
2019-02-21T23:38:06.197Z,27.47
2019-02-21T23:40:38.717Z,28.23
2019-02-21T23:43:09.640Z,28.53
2019-02-21T23:45:40.758Z,29.73
2019-02-21T23:48:11.653Z,27.77
2019-02-21T23:50:42.568Z,29.50
2019-02-21T23:53:13.485Z,30.20
2019-02-21T23:55:44.649Z,28.83
2019-02-21T23:58:15.721Z,28.73
